Time;durP1;ratioP1;P1;durP2;ratioP2;P2;SDS_P1;SDS_P2;PMS_P1;PMS_P2;Temp;Humidity;BMP_temperature;BMP_pressure;BME280_temperature;BME280_humidity;BME280_pressure;Samples;Min_cycle;Max_cycle;Signal;HPM_P1;HPM_P2
2023/10/19 00:00:43;;;;;;;9.63;8.73;;;14.60;64.20;13.20;95029.00;;;;4993023;28;20217;-84
2023/10/19 00:03:16;;;;;;;10.70;9.40;;;14.50;64.20;13.20;95018.00;;;;4992790;28;20229;-84
2023/10/19 00:05:44;;;;;;;11.00;9.70;;;14.50;64.20;13.20;95018.00;;;;4993329;28;20199;-83
2023/10/19 00:08:15;;;;;;;10.33;9.17;;;14.50;64.20;13.10;95021.00;;;;4992471;28;20195;-84
2023/10/19 00:10:54;;;;;;;10.67;9.00;;;14.40;64.30;13.10;95011.00;;;;4993022;28;20198;-84
2023/10/19 00:13:22;;;;;;;10.60;9.53;;;14.40;64.40;13.10;95006.00;;;;4987947;28;20214;-84
2023/10/19 00:15:53;;;;;;;10.63;9.33;;;14.40;64.40;13.10;95009.00;;;;4993039;28;20199;-83
2023/10/19 00:18:22;;;;;;;11.70;10.43;;;14.40;64.50;13.10;95001.00;;;;4992368;28;20702;-84
2023/10/19 00:21:10;;;;;;;11.13;9.93;;;14.30;64.60;13.00;95014.00;;;;4992224;28;20706;-83
2023/10/19 00:23:47;;;;;;;10.57;9.53;;;14.30;64.70;13.00;94999.00;;;;4991478;28;20246;-83
2023/10/19 00:26:19;;;;;;;10.47;9.40;;;14.30;64.70;13.00;95004.00;;;;4982805;28;20699;-85
2023/10/19 00:28:55;;;;;;;10.53;9.33;;;14.30;64.80;13.00;95002.00;;;;4988308;28;20290;-84
2023/10/19 00:31:23;;;;;;;10.60;9.50;;;14.30;64.90;13.00;94995.00;;;;4992125;28;20783;-83
2023/10/19 00:33:51;;;;;;;10.90;9.80;;;14.20;64.70;13.00;94996.00;;;;4992686;28;20215;-83
2023/10/19 00:36:20;;;;;;;10.50;9.40;;;14.20;64.80;12.90;94996.00;;;;4993245;28;20203;-83
2023/10/19 00:38:52;;;;;;;10.47;9.37;;;14.20;64.90;12.90;94997.00;;;;4993114;28;20195;-83
2023/10/19 00:41:29;;;;;;;10.93;9.70;;;14.20;64.90;12.90;94988.00;;;;4992755;28;20223;-83
2023/10/19 00:44:07;;;;;;;10.60;9.50;;;14.20;64.90;12.90;94981.00;;;;4990381;28;20332;-83
2023/10/19 00:46:39;;;;;;;10.60;9.50;;;14.10;64.80;12.90;94982.00;;;;4992600;28;20194;-83
2023/10/19 00:49:16;;;;;;;10.47;9.37;;;14.10;64.80;12.80;94987.00;;;;4992445;28;20199;-84
2023/10/19 00:51:54;;;;;;;10.73;9.63;;;14.10;64.90;12.80;94975.00;;;;4990246;28;20269;-83
2023/10/19 00:54:31;;;;;;;10.00;9.03;;;14.10;65.00;12.80;94969.00;;;;4988742;28;20606;-83
2023/10/19 00:57:05;;;;;;;9.87;8.87;;;14.10;65.10;12.80;94968.00;;;;4991241;28;20552;-84
2023/10/19 00:59:43;;;;;;;10.30;9.27;;;14.10;65.10;12.80;94962.00;;;;4992775;28;20708;-83
2023/10/19 01:02:28;;;;;;;10.07;9.03;;;14.10;65.20;12.80;94956.00;;;;4989524;28;20250;-83
2023/10/19 01:05:00;;;;;;;10.47;9.47;;;14.00;65.10;12.80;94953.00;;;;4992640;28;20205;-83
2023/10/19 01:07:46;;;;;;;10.30;9.23;;;14.00;65.20;12.70;94938.00;;;;4993010;28;20577;-83
2023/10/19 01:10:20;;;;;;;10.60;9.50;;;14.00;65.40;12.70;94946.00;;;;4992127;28;20227;-84
2023/10/19 01:12:59;;;;;;;9.33;8.43;;;14.00;65.30;12.70;94947.00;;;;4991510;28;20218;-83
2023/10/19 01:15:36;;;;;;;10.40;9.30;;;14.00;65.40;12.70;94946.00;;;;4991488;28;20199;-84
2023/10/19 01:18:14;;;;;;;11.10;9.73;;;14.00;65.40;12.70;94931.00;;;;4991399;28;20213;-83
2023/10/19 01:20:51;;;;;;;11.17;10.07;;;14.00;65.50;12.70;94925.00;;;;4993720;28;20194;-84
2023/10/19 01:26:09;;;;;;;12.60;10.40;;;13.90;65.50;12.70;94926.00;;;;4986555;28;20194;-83
2023/10/19 01:28:47;;;;;;;10.80;9.70;;;14.00;65.60;12.70;94933.00;;;;4989435;28;20214;-84
2023/10/19 01:31:22;;;;;;;11.13;10.03;;;14.00;65.80;12.70;94919.00;;;;4986756;28;20332;-84
2023/10/19 01:33:55;;;;;;;11.17;9.77;;;14.00;65.90;12.70;94932.00;;;;4994598;28;20222;-83
2023/10/19 01:36:32;;;;;;;10.67;9.20;;;13.90;65.90;12.70;94930.00;;;;4991356;28;20285;-83
2023/10/19 01:39:09;;;;;;;10.87;9.60;;;14.00;66.00;12.70;94921.00;;;;4993856;28;20195;-83
2023/10/19 01:41:41;;;;;;;11.40;10.30;;;14.00;66.10;12.80;94940.00;;;;4994982;28;20258;-83
2023/10/19 01:44:12;;;;;;;10.43;9.43;;;14.00;66.30;12.80;94934.00;;;;4995432;28;20226;-83
2023/10/19 01:46:43;;;;;;;10.90;9.80;;;14.00;66.30;12.80;94927.00;;;;4995701;28;20321;-83
2023/10/19 01:49:13;;;;;;;11.07;9.80;;;14.00;66.40;12.80;94917.00;;;;4995732;28;20656;-83
2023/10/19 01:51:39;;;;;;;12.13;10.40;;;14.00;66.50;12.80;94929.00;;;;4995764;28;20583;-84
2023/10/19 01:54:29;;;;;;;9.73;8.80;;;14.00;66.50;12.90;94937.00;;;;4995012;28;20218;-83
2023/10/19 01:56:56;;;;;;;10.53;9.03;;;14.10;66.70;12.90;94935.00;;;;4992982;28;20742;-82
2023/10/19 01:59:34;;;;;;;10.90;9.87;;;14.10;66.60;12.90;94927.00;;;;4995651;28;20241;-83
2023/10/19 02:02:02;;;;;;;9.63;8.70;;;14.10;67.30;12.90;94923.00;;;;4993814;28;20226;-82
2023/10/19 02:07:23;;;;;;;10.90;9.80;;;14.10;66.70;13.00;94936.00;;;;4989672;28;20210;-83
2023/10/19 02:10:02;;;;;;;11.47;9.90;;;14.20;66.70;13.00;94936.00;;;;4991360;28;20211;-83
2023/10/19 02:12:42;;;;;;;11.77;9.53;;;14.20;66.70;13.00;94941.00;;;;4994874;28;20254;-82
2023/10/19 02:15:14;;;;;;;11.20;10.00;;;14.20;66.80;13.00;94935.00;;;;4993923;28;20285;-82
2023/10/19 02:17:48;;;;;;;10.57;9.37;;;14.20;66.70;13.00;94947.00;;;;4994068;28;20277;-83
2023/10/19 02:20:24;;;;;;;10.83;9.73;;;14.20;66.70;13.00;94940.00;;;;4991629;28;20206;-83
2023/10/19 02:23:06;;;;;;;10.47;9.37;;;14.20;66.70;13.10;94932.00;;;;4993602;28;20230;-83
2023/10/19 02:25:36;;;;;;;10.53;9.40;;;14.20;66.70;13.10;94931.00;;;;4991834;28;20730;-83
2023/10/19 02:28:12;;;;;;;10.77;9.70;;;14.30;66.70;13.10;94928.00;;;;4994336;28;20221;-83
2023/10/19 02:30:42;;;;;;;10.43;9.33;;;14.30;66.80;13.10;94933.00;;;;4994020;28;20566;-82
2023/10/19 02:33:17;;;;;;;10.67;9.50;;;14.30;66.80;13.10;94929.00;;;;4993082;28;20296;-82
2023/10/19 02:35:57;;;;;;;10.90;9.40;;;14.30;66.80;13.20;94927.00;;;;4994751;28;20202;-82
2023/10/19 02:38:23;;;;;;;11.17;10.00;;;14.30;66.80;13.20;94913.00;;;;4986367;28;20203;-83
2023/10/19 02:41:00;;;;;;;10.37;9.23;;;14.30;66.80;13.20;94915.00;;;;4991497;28;20238;-84
2023/10/19 02:43:44;;;;;;;10.07;9.17;;;14.40;66.80;13.20;94912.00;;;;4994292;28;20218;-83
2023/10/19 02:46:28;;;;;;;10.07;9.03;;;14.40;66.90;13.20;94909.00;;;;4994470;28;20718;-84
2023/10/19 02:49:00;;;;;;;10.50;9.43;;;14.40;66.70;13.30;94900.00;;;;4992112;28;20253;-84
2023/10/19 02:51:27;;;;;;;11.17;10.07;;;14.40;66.70;13.30;94900.00;;;;4994451;28;20738;-84
2023/10/19 02:53:54;;;;;;;10.87;9.47;;;14.40;66.60;13.30;94888.00;;;;4991130;28;20222;-83
2023/10/19 02:56:23;;;;;;;10.93;9.43;;;14.40;66.60;13.30;94898.00;;;;4994523;28;20690;-84
2023/10/19 02:58:53;;;;;;;13.60;9.57;;;14.50;66.70;13.30;94895.00;;;;4993874;28;20230;-82
2023/10/19 03:01:22;;;;;;;11.30;10.10;;;14.40;66.60;13.30;94893.00;;;;4993353;28;20214;-83
2023/10/19 03:03:59;;;;;;;11.43;9.17;;;14.50;66.80;13.30;94891.00;;;;4990066;28;20251;-84
2023/10/19 03:06:33;;;;;;;10.73;9.03;;;14.50;66.90;13.40;94892.00;;;;4993106;28;20198;-83
2023/10/19 03:09:04;;;;;;;10.40;9.40;;;14.50;66.80;13.40;94901.00;;;;4988499;28;20199;-83
2023/10/19 03:11:35;;;;;;;11.23;9.50;;;14.50;66.80;13.40;94888.00;;;;4992530;28;20207;-83
2023/10/19 03:14:05;;;;;;;10.70;9.60;;;14.50;66.80;13.40;94879.00;;;;4988176;28;20716;-81
2023/10/19 03:16:42;;;;;;;10.87;9.77;;;14.50;66.90;13.40;94876.00;;;;4992554;28;20203;-83
2023/10/19 03:19:20;;;;;;;11.87;10.07;;;14.50;67.00;13.40;94865.00;;;;4993575;28;20605;-83
2023/10/19 03:21:53;;;;;;;11.43;10.10;;;14.50;66.90;13.40;94855.00;;;;4993811;28;20206;-83
2023/10/19 03:24:40;;;;;;;12.27;10.93;;;14.50;67.00;13.40;94849.00;;;;4993317;28;20206;-84
2023/10/19 03:27:21;;;;;;;11.27;9.70;;;14.60;67.00;13.40;94836.00;;;;4983182;28;20199;-84
2023/10/19 03:29:53;;;;;;;11.17;10.07;;;14.50;66.80;13.40;94848.00;;;;4987684;28;20221;-83
2023/10/19 03:32:32;;;;;;;11.20;9.33;;;14.50;66.90;13.40;94849.00;;;;4989079;28;20242;-83
2023/10/19 03:35:05;;;;;;;10.10;9.10;;;14.50;66.90;13.30;94843.00;;;;4993306;28;20202;-84
2023/10/19 03:37:35;;;;;;;11.33;9.60;;;14.50;67.00;13.30;94843.00;;;;4993324;28;20203;-84
2023/10/19 03:40:07;;;;;;;10.53;9.37;;;14.50;67.10;13.30;94844.00;;;;4993689;28;20207;-83
2023/10/19 03:45:22;;;;;;;10.27;9.00;;;14.50;67.20;13.30;94844.00;;;;4983640;28;20198;-84
2023/10/19 03:48:00;;;;;;;10.03;9.03;;;14.50;67.20;13.30;94847.00;;;;4993383;28;20206;-83
2023/10/19 03:50:37;;;;;;;11.17;9.70;;;14.50;67.20;13.30;94842.00;;;;4993804;28;20232;-83
2023/10/19 03:53:15;;;;;;;10.47;9.37;;;14.50;67.20;13.30;94850.00;;;;4991565;28;20315;-83
2023/10/19 03:55:49;;;;;;;10.73;9.73;;;14.50;67.20;13.30;94845.00;;;;4992890;28;20302;-83
2023/10/19 03:58:30;;;;;;;10.77;9.67;;;14.50;67.10;13.30;94837.00;;;;4988499;28;20203;-83
2023/10/19 04:01:05;;;;;;;12.17;10.63;;;14.50;67.00;13.30;94832.00;;;;4986375;28;20221;-83
2023/10/19 04:03:32;;;;;;;11.70;10.40;;;14.50;66.70;13.30;94822.00;;;;4988976;28;20236;-83
2023/10/19 04:06:03;;;;;;;11.70;10.50;;;14.50;66.70;13.30;94836.00;;;;4992272;28;20201;-83
2023/10/19 04:08:37;;;;;;;11.67;10.47;;;14.40;66.60;13.30;94846.00;;;;4992214;28;20210;-83
2023/10/19 04:11:21;;;;;;;12.87;11.57;;;14.40;66.80;13.30;94839.00;;;;4992053;28;20269;-84
2023/10/19 04:14:03;;;;;;;10.93;9.80;;;14.40;67.70;13.30;94851.00;;;;4990838;28;20297;-83
2023/10/19 04:16:37;;;;;;;13.17;10.13;;;14.40;67.00;13.30;94848.00;;;;4993030;28;20218;-83
2023/10/19 04:19:09;;;;;;;11.33;10.13;;;14.40;67.00;13.30;94851.00;;;;4992993;28;20203;-84
2023/10/19 04:21:38;;;;;;;11.17;9.97;;;14.40;67.00;13.30;94848.00;;;;4992937;28;20206;-82
2023/10/19 04:24:21;;;;;;;11.57;10.27;;;14.40;67.00;13.30;94851.00;;;;4992636;28;20231;-83
2023/10/19 04:27:06;;;;;;;11.17;9.57;;;14.40;67.10;13.30;94843.00;;;;4990211;28;20202;-84
2023/10/19 04:29:37;;;;;;;11.87;10.33;;;14.40;67.10;13.30;94844.00;;;;4984980;28;20206;-84
2023/10/19 04:32:06;;;;;;;11.87;10.67;;;14.50;67.20;13.30;94844.00;;;;4992979;28;20199;-84
2023/10/19 04:34:36;;;;;;;11.77;10.23;;;14.50;67.10;13.30;94833.00;;;;4992731;28;20659;-84
2023/10/19 04:37:08;;;;;;;12.20;10.97;;;14.50;67.10;13.40;94833.00;;;;4990025;28;20234;-84
2023/10/19 04:39:36;;;;;;;12.00;10.17;;;14.50;67.20;13.40;94823.00;;;;4991798;28;20203;-84
2023/10/19 04:42:04;;;;;;;12.70;11.23;;;14.50;67.20;13.40;94815.00;;;;4987615;28;20227;-84
2023/10/19 04:44:35;;;;;;;11.40;10.20;;;14.50;67.10;13.40;94818.00;;;;4990941;28;20198;-83
2023/10/19 04:47:02;;;;;;;11.67;10.47;;;14.50;67.00;13.40;94818.00;;;;4992852;28;20206;-83
2023/10/19 04:49:30;;;;;;;15.93;12.70;;;14.50;67.00;13.40;94813.00;;;;4992737;28;20202;-83
2023/10/19 04:51:57;;;;;;;13.93;12.37;;;14.50;67.00;13.40;94806.00;;;;4993003;28;20579;-84
2023/10/19 04:54:24;;;;;;;14.63;12.80;;;14.50;66.80;13.40;94805.00;;;;4994497;28;20202;-81
2023/10/19 04:56:55;;;;;;;13.57;11.37;;;14.50;66.60;13.40;94802.00;;;;4995319;28;20209;-84
2023/10/19 04:59:22;;;;;;;12.73;11.40;;;14.50;66.70;13.40;94799.00;;;;4995484;28;20211;-83
2023/10/19 05:01:57;;;;;;;13.33;11.93;;;14.50;66.90;13.40;94803.00;;;;4991957;28;20683;-83
2023/10/19 05:04:27;;;;;;;12.37;11.10;;;14.50;67.10;13.40;94809.00;;;;4995112;28;20201;-83
2023/10/19 05:06:55;;;;;;;11.53;10.30;;;14.50;67.10;13.40;94820.00;;;;4992625;28;20199;-83
2023/10/19 05:09:22;;;;;;;12.20;10.90;;;14.50;67.30;13.40;94822.00;;;;4994259;28;20206;-83
2023/10/19 05:11:49;;;;;;;12.07;10.73;;;14.50;67.20;13.40;94823.00;;;;4992904;28;20227;-83
2023/10/19 05:14:22;;;;;;;13.80;11.70;;;14.50;67.20;13.40;94829.00;;;;4995339;28;20198;-83
2023/10/19 05:16:51;;;;;;;13.03;11.63;;;14.50;67.20;13.40;94829.00;;;;4995811;28;20206;-84
2023/10/19 05:19:21;;;;;;;12.10;10.77;;;14.50;67.20;13.40;94826.00;;;;4995996;28;20233;-84
2023/10/19 05:22:00;;;;;;;13.30;11.57;;;14.50;67.20;13.40;94823.00;;;;4996073;28;20206;-86
2023/10/19 05:24:28;;;;;;;11.70;10.53;;;14.50;67.20;13.40;94827.00;;;;4990196;28;20210;-85
2023/10/19 05:26:56;;;;;;;13.30;11.73;;;14.50;67.00;13.40;94813.00;;;;4996308;28;20227;-86
2023/10/19 05:29:27;;;;;;;12.30;11.00;;;14.60;67.70;13.40;94811.00;;;;4996085;28;20668;-86
2023/10/19 05:32:00;;;;;;;12.40;10.90;;;14.60;66.90;13.50;94815.00;;;;4996057;28;20237;-86
2023/10/19 05:34:29;;;;;;;14.37;11.90;;;14.60;66.80;13.50;94812.00;;;;4995860;28;20561;-86
2023/10/19 05:36:58;;;;;;;11.50;10.40;;;14.60;66.70;13.50;94807.00;;;;4993469;28;20202;-85
2023/10/19 05:39:27;;;;;;;12.33;10.53;;;14.60;66.70;13.50;94815.00;;;;4995615;28;20215;-84
2023/10/19 05:41:58;;;;;;;10.67;9.57;;;14.60;66.70;13.50;94812.00;;;;4995438;28;20202;-84
2023/10/19 05:44:28;;;;;;;11.70;10.10;;;14.60;66.70;13.40;94805.00;;;;4993224;28;20206;-85
2023/10/19 05:46:58;;;;;;;10.77;9.67;;;14.60;66.60;13.40;94811.00;;;;4992505;28;20198;-84
2023/10/19 05:49:26;;;;;;;11.27;10.10;;;14.60;66.50;13.40;94802.00;;;;4995134;28;20209;-84
2023/10/19 05:51:54;;;;;;;12.33;10.83;;;14.70;66.50;13.40;94807.00;;;;4994435;28;20284;-84
2023/10/19 05:54:23;;;;;;;13.47;10.33;;;14.60;67.30;13.40;94802.00;;;;4994446;28;20230;-85
2023/10/19 05:56:51;;;;;;;11.40;10.13;;;14.60;66.60;13.40;94808.00;;;;4992141;28;20632;-84
2023/10/19 05:59:23;;;;;;;11.50;9.67;;;14.60;66.60;13.40;94811.00;;;;4987605;28;20210;-85
2023/10/19 06:01:51;;;;;;;10.47;9.37;;;14.60;66.60;13.40;94816.00;;;;4994190;28;20620;-85
2023/10/19 06:04:23;;;;;;;11.07;9.87;;;14.60;66.60;13.40;94809.00;;;;4994143;28;20694;-84
2023/10/19 06:06:51;;;;;;;11.67;10.47;;;14.60;66.70;13.40;94808.00;;;;4994210;28;20207;-84
2023/10/19 06:09:20;;;;;;;10.60;9.50;;;14.60;66.60;13.40;94807.00;;;;4994888;28;20294;-85
2023/10/19 06:11:50;;;;;;;10.97;9.87;;;14.60;66.70;13.30;94810.00;;;;4994595;28;20281;-85
2023/10/19 06:14:17;;;;;;;12.33;10.67;;;14.60;66.70;13.30;94809.00;;;;4975852;28;20206;-84
2023/10/19 06:16:50;;;;;;;11.07;9.97;;;14.60;66.80;13.30;94805.00;;;;4993521;28;20285;-84
2023/10/19 06:19:26;;;;;;;12.23;10.10;;;14.60;66.90;13.30;94808.00;;;;4989815;28;20210;-85
2023/10/19 06:22:09;;;;;;;11.67;10.40;;;14.60;66.90;13.30;94806.00;;;;4993873;28;20216;-85
2023/10/19 06:24:38;;;;;;;12.57;11.20;;;14.60;66.90;13.30;94807.00;;;;4994322;28;20218;-85
2023/10/19 06:27:08;;;;;;;11.47;10.27;;;14.60;66.90;13.30;94801.00;;;;4994287;28;20206;-84
2023/10/19 06:29:35;;;;;;;11.30;10.07;;;14.60;67.00;13.40;94806.00;;;;4993920;28;20218;-84
2023/10/19 06:32:05;;;;;;;11.30;9.73;;;14.60;67.00;13.40;94808.00;;;;4992589;28;20715;-86
2023/10/19 06:34:33;;;;;;;13.03;10.67;;;14.60;67.00;13.40;94803.00;;;;4993587;28;20202;-85
2023/10/19 06:37:03;;;;;;;11.23;10.03;;;14.60;67.00;13.40;94796.00;;;;4994056;28;20202;-85
2023/10/19 06:39:31;;;;;;;13.17;10.70;;;14.60;67.00;13.40;94795.00;;;;4994572;28;20207;-85
2023/10/19 06:41:58;;;;;;;11.37;9.90;;;14.60;67.00;13.30;94797.00;;;;4994142;28;20202;-85
2023/10/19 06:44:25;;;;;;;11.03;9.90;;;14.60;67.00;13.40;94795.00;;;;4994402;28;20683;-85
2023/10/19 06:46:52;;;;;;;11.07;9.63;;;14.60;67.00;13.40;94798.00;;;;4994112;28;20212;-85
2023/10/19 06:49:20;;;;;;;10.33;9.23;;;14.60;67.00;13.30;94795.00;;;;4993577;28;20199;-85
2023/10/19 06:51:48;;;;;;;12.00;10.10;;;14.60;67.00;13.30;94791.00;;;;4993053;28;20206;-85
2023/10/19 06:54:16;;;;;;;11.00;10.00;;;14.60;67.20;13.30;94798.00;;;;4993086;28;20211;-86
2023/10/19 06:56:46;;;;;;;13.57;11.07;;;14.60;67.10;13.30;94796.00;;;;4990676;28;20199;-84
2023/10/19 06:59:13;;;;;;;11.57;10.17;;;14.60;67.30;13.30;94792.00;;;;4992892;28;20675;-84
2023/10/19 07:01:41;;;;;;;12.17;10.37;;;14.60;67.40;13.30;94793.00;;;;4993348;28;20222;-85
2023/10/19 07:04:08;;;;;;;10.73;9.60;;;14.60;67.40;13.30;94781.00;;;;4986025;28;20226;-85
2023/10/19 07:06:38;;;;;;;11.37;10.17;;;14.60;67.50;13.40;94787.00;;;;4993914;28;20293;-84
2023/10/19 07:09:10;;;;;;;11.80;10.43;;;14.60;67.60;13.40;94778.00;;;;4993830;28;20285;-85
2023/10/19 07:11:44;;;;;;;11.43;10.03;;;14.60;67.70;13.40;94782.00;;;;4994110;28;20206;-84
2023/10/19 07:14:17;;;;;;;11.37;10.27;;;14.60;67.80;13.50;94784.00;;;;4993254;28;20268;-85
2023/10/19 07:16:45;;;;;;;11.80;10.50;;;14.70;68.00;13.50;94773.00;;;;4993840;28;20203;-86
2023/10/19 07:19:14;;;;;;;11.47;10.30;;;14.70;68.00;13.50;94792.00;;;;4993317;28;20282;-86
2023/10/19 07:21:43;;;;;;;11.60;10.40;;;14.70;68.00;13.60;94779.00;;;;4993775;28;20234;-85
2023/10/19 07:24:12;;;;;;;12.63;10.70;;;14.70;68.10;13.60;94783.00;;;;4993073;28;20601;-86
2023/10/19 07:27:18;;;;;;;12.30;10.37;;;14.80;68.30;13.70;94783.00;;;;4993611;28;20233;-86
2023/10/19 07:29:51;;;;;;;12.30;9.40;;;14.80;68.30;13.70;94787.00;;;;4993347;28;20221;-85
2023/10/19 07:32:24;;;;;;;11.00;9.90;;;14.90;68.20;13.70;94781.00;;;;4987824;28;20230;-85
2023/10/19 07:34:59;;;;;;;11.83;10.63;;;14.90;68.20;13.70;94784.00;;;;4989529;28;20210;-85
2023/10/19 07:37:29;;;;;;;12.77;10.43;;;14.90;68.20;13.80;94781.00;;;;4992834;28;20209;-85
2023/10/19 07:40:14;;;;;;;11.13;9.97;;;15.00;68.30;13.80;94788.00;;;;4991051;28;20203;-85
2023/10/19 07:42:42;;;;;;;10.00;9.00;;;15.00;68.50;13.90;94787.00;;;;4989139;28;20230;-85
2023/10/19 07:45:13;;;;;;;11.10;9.90;;;15.00;68.30;13.90;94784.00;;;;4992315;28;20581;-85
2023/10/19 07:47:41;;;;;;;11.53;10.13;;;15.00;68.40;13.90;94787.00;;;;4991683;28;20201;-85
2023/10/19 07:50:15;;;;;;;12.20;10.93;;;15.10;68.40;14.00;94795.00;;;;4978043;28;20281;-84
2023/10/19 07:52:53;;;;;;;12.40;11.07;;;15.10;68.40;14.00;94803.00;;;;4960163;28;20242;-84
2023/10/19 07:55:36;;;;;;;13.80;11.87;;;15.20;68.30;14.10;94785.00;;;;4961411;28;20213;-85
2023/10/19 07:58:15;;;;;;;11.87;10.03;;;15.20;68.40;14.10;94790.00;;;;4992103;28;20245;-85
2023/10/19 08:00:46;;;;;;;10.80;9.63;;;15.20;68.20;14.20;94773.00;;;;4990476;28;20215;-85
2023/10/19 08:03:15;;;;;;;10.33;9.33;;;15.30;68.30;14.20;94772.00;;;;4987264;28;20234;-86
2023/10/19 08:05:43;;;;;;;11.40;9.93;;;15.30;68.40;14.20;94782.00;;;;4993127;28;20210;-85
2023/10/19 08:08:12;;;;;;;11.40;9.70;;;15.30;68.50;14.30;94781.00;;;;4990299;28;20198;-86
2023/10/19 08:10:41;;;;;;;13.13;10.83;;;15.30;68.50;14.30;94781.00;;;;4990875;28;20261;-85
2023/10/19 08:13:08;;;;;;;11.43;9.97;;;15.40;68.70;14.40;94778.00;;;;4992321;28;20226;-85
2023/10/19 08:15:36;;;;;;;11.37;9.80;;;15.40;68.60;14.40;94777.00;;;;4992086;28;20203;-85
2023/10/19 08:18:05;;;;;;;12.47;10.27;;;15.50;68.70;14.50;94784.00;;;;4992485;28;20203;-85
2023/10/19 08:20:36;;;;;;;12.03;9.47;;;15.50;68.80;14.50;94776.00;;;;4992064;28;20229;-85
2023/10/19 08:23:05;;;;;;;11.20;9.50;;;15.60;68.80;14.60;94767.00;;;;4989381;28;20237;-85
2023/10/19 08:25:32;;;;;;;12.23;10.47;;;15.60;68.80;14.60;94767.00;;;;4992625;28;20241;-85
2023/10/19 08:28:01;;;;;;;11.20;9.87;;;15.70;68.90;14.70;94755.00;;;;4992565;28;20207;-85
2023/10/19 08:30:29;;;;;;;11.73;10.37;;;15.70;68.90;14.80;94757.00;;;;4993942;28;20202;-86
2023/10/19 08:32:57;;;;;;;9.27;8.37;;;15.80;69.00;14.80;94762.00;;;;4994388;28;20226;-86
2023/10/19 08:35:25;;;;;;;11.40;10.13;;;15.80;69.00;14.90;94752.00;;;;4996709;28;20202;-86
2023/10/19 08:37:53;;;;;;;13.57;10.03;;;15.90;69.00;15.00;94754.00;;;;4996466;28;20734;-85
2023/10/19 08:40:23;;;;;;;11.57;10.33;;;15.90;68.90;15.00;94757.00;;;;4996407;28;20233;-86
2023/10/19 08:42:51;;;;;;;11.33;10.13;;;16.00;68.90;15.10;94752.00;;;;4995312;28;20230;-85
2023/10/19 08:45:23;;;;;;;11.83;10.63;;;16.00;69.00;15.10;94765.00;;;;4996568;28;20195;-86
2023/10/19 08:47:59;;;;;;;11.23;10.10;;;16.10;69.10;15.20;94769.00;;;;4996472;28;20201;-86
2023/10/19 08:50:28;;;;;;;11.63;10.47;;;16.20;69.20;15.30;94772.00;;;;4995428;28;20202;-86
2023/10/19 08:52:58;;;;;;;11.90;10.60;;;16.30;69.20;15.40;94770.00;;;;4993673;28;20253;-85
2023/10/19 08:55:26;;;;;;;10.37;9.27;;;16.30;69.20;15.40;94769.00;;;;4996139;28;20222;-86
2023/10/19 08:57:54;;;;;;;9.77;8.87;;;16.40;69.20;15.50;94777.00;;;;4993453;28;20203;-85
2023/10/19 09:00:24;;;;;;;10.33;9.30;;;16.40;69.30;15.50;94768.00;;;;4995612;28;20567;-85
2023/10/19 09:02:53;;;;;;;10.03;8.87;;;16.50;69.40;15.60;94775.00;;;;4992921;28;20318;-86
2023/10/19 09:05:22;;;;;;;9.43;8.43;;;16.60;69.40;15.60;94775.00;;;;4995597;28;20262;-85
2023/10/19 09:07:54;;;;;;;10.80;9.70;;;16.60;69.20;15.70;94774.00;;;;4995908;28;20317;-85
2023/10/19 09:10:23;;;;;;;11.17;9.93;;;16.70;69.20;15.80;94781.00;;;;4995205;28;20213;-85
2023/10/19 09:13:03;;;;;;;9.73;8.73;;;16.70;69.20;15.80;94777.00;;;;4995234;28;20230;-85
2023/10/19 09:15:33;;;;;;;9.33;8.43;;;16.80;69.20;15.80;94777.00;;;;4995866;28;20209;-85
2023/10/19 09:18:13;;;;;;;10.73;8.43;;;16.80;69.10;15.90;94784.00;;;;4995675;28;20199;-86
2023/10/19 09:20:41;;;;;;;8.63;7.60;;;16.90;69.10;15.90;94783.00;;;;4995436;28;20199;-86
2023/10/19 09:23:09;;;;;;;9.73;8.03;;;16.90;69.00;16.00;94776.00;;;;4992549;28;20223;-85
2023/10/19 09:25:39;;;;;;;8.97;8.07;;;16.90;68.90;16.00;94762.00;;;;4995882;28;20207;-85
2023/10/19 09:28:10;;;;;;;10.27;7.93;;;17.00;68.90;16.00;94766.00;;;;4995774;28;20287;-84
2023/10/19 09:30:40;;;;;;;8.60;7.80;;;17.00;68.90;16.10;94769.00;;;;4995543;28;20229;-86
2023/10/19 09:33:09;;;;;;;10.17;8.47;;;17.10;69.10;16.10;94761.00;;;;4992637;28;20246;-85
2023/10/19 09:35:38;;;;;;;8.83;7.90;;;17.10;68.90;16.20;94768.00;;;;4995841;28;20211;-85
2023/10/19 09:38:06;;;;;;;10.33;8.10;;;17.10;68.80;16.20;94764.00;;;;4995778;28;20299;-85
2023/10/19 09:40:34;;;;;;;8.37;7.53;;;17.20;69.00;16.20;94750.00;;;;4994514;28;20198;-85
2023/10/19 09:43:09;;;;;;;8.80;7.93;;;17.20;68.80;16.30;94753.00;;;;4995254;28;20230;-84
2023/10/19 09:45:43;;;;;;;8.83;7.97;;;17.20;68.80;16.30;94754.00;;;;4995590;28;20271;-84
2023/10/19 09:48:16;;;;;;;8.60;7.70;;;17.30;68.80;16.40;94750.00;;;;4995514;28;20245;-85
2023/10/19 09:50:54;;;;;;;9.27;7.67;;;17.30;68.70;16.40;94746.00;;;;4992633;28;20203;-85
2023/10/19 09:53:26;;;;;;;9.63;8.63;;;17.40;69.00;16.50;94752.00;;;;4994349;28;20280;-85
2023/10/19 09:55:58;;;;;;;9.20;8.17;;;17.40;69.00;16.50;94753.00;;;;4991303;28;20213;-84
2023/10/19 09:58:32;;;;;;;9.70;8.03;;;17.50;68.90;16.60;94750.00;;;;4995416;28;20656;-86
2023/10/19 10:01:02;;;;;;;8.50;7.63;;;17.50;68.80;16.70;94749.00;;;;4992924;28;20219;-85
2023/10/19 10:03:51;;;;;;;8.30;7.50;;;17.60;69.10;16.70;94744.00;;;;4994371;28;20218;-85
2023/10/19 10:06:28;;;;;;;7.47;6.77;;;17.60;69.40;16.80;94746.00;;;;4987236;28;20282;-84
2023/10/19 10:08:57;;;;;;;7.80;6.97;;;17.70;69.20;16.80;94739.00;;;;4992426;28;20210;-84
2023/10/19 10:11:27;;;;;;;8.90;7.97;;;17.70;69.20;16.80;94738.00;;;;4994439;28;20198;-86
2023/10/19 10:13:57;;;;;;;8.63;7.73;;;17.70;69.40;16.80;94738.00;;;;4991197;28;20222;-85
2023/10/19 10:16:28;;;;;;;8.50;7.67;;;17.80;69.60;16.90;94734.00;;;;4994398;28;20209;-84
2023/10/19 10:19:00;;;;;;;8.10;6.60;;;17.80;69.90;16.90;94725.00;;;;4991899;28;20237;-85
2023/10/19 10:21:29;;;;;;;7.97;7.27;;;17.80;69.90;17.00;94723.00;;;;4994968;28;20565;-87
2023/10/19 10:23:59;;;;;;;7.97;7.17;;;17.90;69.80;17.00;94716.00;;;;4986279;28;20230;-86
2023/10/19 10:26:29;;;;;;;7.67;7.03;;;17.90;69.70;17.10;94717.00;;;;4992363;28;20246;-86
2023/10/19 10:29:14;;;;;;;7.57;6.87;;;17.90;69.90;17.10;94723.00;;;;4992326;28;20284;-86
2023/10/19 10:31:47;;;;;;;8.60;7.47;;;18.00;70.80;17.20;94712.00;;;;4994921;28;20194;-85
2023/10/19 10:34:45;;;;;;;7.70;7.00;;;18.00;70.20;17.20;94721.00;;;;4993684;28;20206;-85
2023/10/19 10:37:14;;;;;;;9.47;6.70;;;18.10;70.40;17.30;94721.00;;;;4994105;28;20206;-85
2023/10/19 10:39:44;;;;;;;7.43;6.73;;;18.10;70.10;17.40;94720.00;;;;4994322;28;20285;-86
2023/10/19 10:42:12;;;;;;;7.90;7.03;;;18.20;70.10;17.40;94719.00;;;;4983833;28;20305;-85
2023/10/19 10:44:42;;;;;;;8.17;7.00;;;18.30;70.20;17.50;94714.00;;;;4993379;28;20314;-86
2023/10/19 10:47:16;;;;;;;7.40;6.80;;;18.30;70.10;17.60;94699.00;;;;4994086;28;20250;-86
2023/10/19 10:49:52;;;;;;;7.53;6.30;;;18.40;70.20;17.60;94693.00;;;;4993959;28;20191;-85
2023/10/19 10:52:31;;;;;;;7.87;6.70;;;18.50;70.50;17.70;94681.00;;;;4988629;28;20305;-86
2023/10/19 10:55:00;;;;;;;7.73;7.03;;;18.50;70.40;17.80;94676.00;;;;4992391;28;20208;-86
2023/10/19 10:57:32;;;;;;;7.57;6.83;;;18.60;70.20;17.80;94671.00;;;;4994894;28;20279;-86
2023/10/19 11:00:07;;;;;;;7.33;6.63;;;18.60;70.50;17.90;94664.00;;;;4992722;28;20686;-86
2023/10/19 11:02:42;;;;;;;7.30;6.60;;;18.70;70.50;18.00;94666.00;;;;4994029;28;20226;-86
2023/10/19 11:05:12;;;;;;;7.57;6.87;;;18.80;70.40;18.10;94672.00;;;;4992853;28;20253;-86
2023/10/19 11:07:40;;;;;;;7.27;6.57;;;18.80;70.20;18.10;94675.00;;;;4994485;28;20226;-86
2023/10/19 11:10:09;;;;;;;7.07;6.47;;;18.90;70.20;18.20;94682.00;;;;4991434;28;20203;-86
2023/10/19 11:12:38;;;;;;;7.17;6.57;;;19.00;70.10;18.20;94680.00;;;;4993664;28;20695;-85
2023/10/19 11:15:09;;;;;;;7.97;7.13;;;19.00;69.80;18.30;94680.00;;;;4992574;28;20234;-84